Latest Coastal Weather Observations for Arlington Reef

IDQ60701

Issued at 11:25 am EST Monday 24 November 2014 (issued every 10 minutes, with the page automatically refreshed every 10 minutes)

About coastal observations | Map of coastal stations | Coastal observations for QLD | Marine services | Other Formats
Station Details ID: 200879 Name: ARLINGTON REEF Lat: -16.72 Lon: 146.11 Height: 0.0 m
Data from the previous 72 hours. | See also: Recent months at Arlington Reef
Date/Time
EST
Temp

°C
Wind Pressure Rain
since 9am
mm
Weather Cloud Vis
km
Sea
Height
m
Swell
Dir
 
Speed
knots
Gust
knots
hPa Trend Height
m
Period
s
Dir
24/11:00am - ESE 9 11 1013.0 - - - - - - - - -
24/10:30am - SE 10 11 1013.2 - - - - - - - - -
24/10:00am - SE 11 13 1013.5 - - - - - - - - -
24/09:30am - SE 11 12 1013.6 - - - - - - - - -
24/09:00am - ESE 11 13 1013.6 - - - - - - - - -
24/08:30am - ESE 11 12 1013.4 - - - - - - - - -
24/08:00am - ESE 11 12 1013.2 - - - - - - - - -
24/07:30am - ESE 12 13 1012.8 - - - - - - - - -
24/07:00am - ESE 11 13 1012.5 - - - - - - - - -
24/06:30am - ESE 11 13 1012.3 - - - - - - - - -
24/06:00am - ESE 11 13 1011.9 - - - - - - - - -
24/05:30am - ESE 12 13 1011.8 - - - - - - - - -
24/05:00am - ESE 10 12 1011.7 - - - - - - - - -
24/04:30am - ESE 11 12 1011.6 - - - - - - - - -
24/04:00am - ESE 10 11 1011.9 - - - - - - - - -
24/03:30am - ESE 10 12 1012.0 - - - - - - - - -
24/03:00am - ESE 10 12 1012.0 - - - - - - - - -
24/02:30am - ESE 11 13 1012.3 - - - - - - - - -
24/02:00am - ESE 10 13 1011.9 - - - - - - - - -
24/01:30am - ESE 11 13 1012.3 - - - - - - - - -
24/01:00am - ESE 12 13 1012.6 - - - - - - - - -
24/12:30am - ESE 12 13 1013.3 - - - - - - - - -
24/12:00am - ESE 12 15 1013.8 - - - - - - - - -
 
Date/Time
EST
Temp

°C
Wind Pressure Rain
since 9am
mm
Weather Cloud Vis
km
Sea
Height
m
Swell
Dir
 
Speed
knots
Gust
knots
hPa Trend Height
m
Period
s
Dir
23/11:30pm - ESE 12 14 1014.0 - - - - - - - - -
23/11:00pm - ESE 12 13 1014.1 - - - - - - - - -
23/10:30pm - ESE 11 13 1014.2 - - - - - - - - -
23/10:00pm - ESE 11 12 1014.2 - - - - - - - - -
23/09:30pm - ESE 11 13 1013.9 - - - - - - - - -
23/09:00pm - ESE 10 12 1013.8 - - - - - - - - -
23/08:30pm - SE 11 13 1013.6 - - - - - - - - -
23/08:00pm - ESE 11 13 1013.2 - - - - - - - - -
23/07:30pm - SE 11 14 1013.0 - - - - - - - - -
23/07:00pm - ESE 12 14 1012.4 - - - - - - - - -
23/06:30pm - SE 12 13 1012.1 - - - - - - - - -
23/06:00pm - SE 11 13 1012.0 - - - - - - - - -
23/05:30pm - SE 12 14 1011.9 - - - - - - - - -
23/05:00pm - ESE 13 14 1011.6 - - - - - - - - -
23/04:30pm - ESE 12 14 1011.6 - - - - - - - - -
23/04:00pm - ESE 12 14 1011.8 - - - - - - - - -
23/03:30pm - ESE 12 14 1012.0 - - - - - - - - -
23/03:00pm - SE 12 13 1012.3 - - - - - - - - -
23/02:30pm - SE 12 14 1012.6 - - - - - - - - -
23/02:00pm - SE 12 14 1012.8 - - - - - - - - -
23/01:30pm - SE 12 15 1013.1 - - - - - - - - -
23/01:00pm - SE 10 12 1013.5 - - - - - - - - -
23/12:30pm - SE 10 11 1013.7 - - - - - - - - -
23/12:00pm - SE 9 10 1014.1 - - - - - - - - -
23/11:30am - SSE 7 11 1014.6 - - - - - - - - -
23/11:00am - SSE 7 8 1014.9 - - - - - - - - -
23/10:30am - SSE 8 9 1015.1 - - - - - - - - -
23/10:00am - SE 8 9 1015.1 - - - - - - - - -
23/09:30am - SE 8 9 1015.1 - - - - - - - - -
23/09:00am - SE 7 8 1015.0 - - - - - - - - -
23/08:30am - SE 8 9 1014.9 - - - - - - - - -
23/08:00am - SE 8 10 1014.7 - - - - - - - - -
23/07:30am - SE 9 10 1014.3 - - - - - - - - -
23/07:00am - SE 8 9 1014.0 - - - - - - - - -
23/06:30am - SE 8 9 1013.7 - - - - - - - - -
23/06:00am - SE 10 11 1013.2 - - - - - - - - -
23/05:30am - ESE 9 11 1012.7 - - - - - - - - -
23/05:00am - ESE 10 11 1012.4 - - - - - - - - -
23/04:30am - ESE 10 11 1012.4 - - - - - - - - -
23/04:00am - SE 9 10 1012.3 - - - - - - - - -
23/03:30am - SE 9 10 1012.4 - - - - - - - - -
23/03:00am - ESE 9 11 1012.4 - - - - - - - - -
23/02:30am - ESE 7 9 1012.3 - - - - - - - - -
23/02:00am - SE 10 13 1012.4 - - - - - - - - -
23/01:30am - SE 9 11 1012.3 - - - - - - - - -
23/01:00am - SE 10 11 1012.6 - - - - - - - - -
23/12:30am - ESE 9 11 1013.0 - - - - - - - - -
23/12:00am - ESE 10 12 1013.5 - - - - - - - - -
 
Date/Time
EST
Temp

°C
Wind Pressure Rain
since 9am
mm
Weather Cloud Vis
km
Sea
Height
m
Swell
Dir
 
Speed
knots
Gust
knots
hPa Trend Height
m
Period
s
Dir
22/11:30pm - ESE 10 12 1013.9 - - - - - - - - -
22/11:00pm - ESE 10 11 1014.2 - - - - - - - - -
22/10:30pm - ESE 10 12 1014.3 - - - - - - - - -
22/10:00pm - ESE 10 12 1014.1 - - - - - - - - -
22/09:30pm - ESE 10 12 1013.6 - - - - - - - - -
22/09:00pm - ESE 9 11 1013.3 - - - - - - - - -
22/08:30pm - ESE 10 12 1013.1 - - - - - - - - -
22/08:00pm - ESE 9 11 1012.9 - - - - - - - - -
22/07:30pm - ESE 10 12 1012.5 - - - - - - - - -
22/07:00pm - ESE 11 13 1012.4 - - - - - - - - -
22/06:30pm - ESE 11 13 1012.2 - - - - - - - - -
22/06:00pm - ESE 11 13 1012.0 - - - - - - - - -
22/05:30pm - SE 11 13 1011.7 - - - - - - - - -
22/05:00pm - ESE 10 12 1011.7 - - - - - - - - -
22/04:30pm - ESE 11 13 1011.5 - - - - - - - - -
22/04:00pm - ESE 10 12 1011.6 - - - - - - - - -
22/03:30pm - SE 9 11 1011.6 - - - - - - - - -
22/03:00pm - SE 8 9 1011.9 - - - - - - - - -
22/02:30pm - SE 8 10 1012.2 - - - - - - - - -
22/02:00pm - SE 8 10 1012.4 - - - - - - - - -
22/01:30pm - SE 7 9 1012.9 - - - - - - - - -
22/01:00pm - SE 6 8 1013.1 - - - - - - - - -
22/12:30pm - SE 6 8 1013.3 - - - - - - - - -
22/12:00pm - SE 7 9 1013.4 - - - - - - - - -
22/11:30am - ESE 6 7 1013.6 - - - - - - - - -
22/11:00am - SE 5 7 1014.0 - - - - - - - - -
22/10:30am - ESE 6 7 1014.2 - - - - - - - - -
22/10:00am - ESE 6 8 1014.1 - - - - - - - - -
22/09:30am - ESE 7 8 1014.2 - - - - - - - - -
22/09:00am - SSE 7 9 1014.4 - - - - - - - - -
22/08:30am - SE 8 10 1014.5 - - - - - - - - -
22/08:00am - SE 7 9 1014.3 - - - - - - - - -
22/07:30am - SE 8 10 1014.0 - - - - - - - - -
22/07:00am - SSE 10 12 1013.9 - - - - - - - - -
22/06:30am - SSE 8 10 1013.5 - - - - - - - - -
22/06:00am - SE 6 7 1013.2 - - - - - - - - -
22/05:30am - SSE 5 7 1012.9 - - - - - - - - -
22/05:00am - S 5 6 1012.6 - - - - - - - - -
22/04:30am - S 5 7 1012.3 - - - - - - - - -
22/04:00am - SSE 4 5 1012.2 - - - - - - - - -
22/03:30am - SSE 3 4 1011.9 - - - - - - - - -
22/03:00am - ESE 3 5 1011.9 - - - - - - - - -
22/02:30am - E 4 5 1012.0 - - - - - - - - -
22/02:00am - ESE 3 5 1012.2 - - - - - - - - -
22/01:30am - ESE 4 6 1012.5 - - - - - - - - -
22/01:00am - ESE 4 5 1012.9 - - - - - - - - -
22/12:30am - ESE 5 7 1013.0 - - - - - - - - -
22/12:00am - E 7 8 1013.1 - - - - - - - - -
 
Date/Time
EST
Temp

°C
Wind Pressure Rain
since 9am
mm
Weather Cloud Vis
km
Sea
Height
m
Swell
Dir
 
Speed
knots
Gust
knots
hPa Trend Height
m
Period
s
Dir
21/11:30pm - E 5 7 1013.1 - - - - - - - - -
21/11:00pm - E 4 6 1013.8 - - - - - - - - -
21/10:30pm - E 6 8 1014.1 - - - - - - - - -
21/10:00pm - ENE 9 11 1014.1 - - - - - - - - -
21/09:30pm - E 9 11 1013.9 - - - - - - - - -
21/09:00pm - E 10 11 1013.4 - - - - - - - - -
21/08:30pm - E 9 11 1013.1 - - - - - - - - -
21/08:00pm - E 9 11 1012.6 - - - - - - - - -
21/07:30pm - E 9 11 1012.2 - - - - - - - - -
21/07:00pm - E 9 10 1012.1 - - - - - - - - -
21/06:30pm - E 9 11 1011.8 - - - - - - - - -
21/06:00pm - E 9 12 1011.6 - - - - - - - - -
21/05:30pm - ESE 10 12 1011.5 - - - - - - - - -
21/05:00pm - ESE 9 11 1011.4 - - - - - - - - -
21/04:30pm - E 10 11 1011.5 - - - - - - - - -
21/04:00pm - ESE 10 12 1011.4 - - - - - - - - -
21/03:30pm - ESE 12 14 1011.4 - - - - - - - - -
21/03:00pm - ESE 11 13 1011.7 - - - - - - - - -
21/02:30pm - ESE 12 14 1012.0 - - - - - - - - -
21/02:00pm - ESE 11 13 1012.6 - - - - - - - - -
21/01:30pm - SE 11 13 1013.0 - - - - - - - - -
21/01:00pm - SE 11 13 1013.3 - - - - - - - - -
21/12:30pm - SE 10 12 1013.8 - - - - - - - - -
21/12:00pm - SE 11 12 1014.0 - - - - - - - - -
21/11:30am - SE 10 11 1014.3 - - - - - - - - -

Other Formats:

Comma delimited format used in spreadsheet applications
http://www.bom.gov.au/fwo/IDQ60701/IDQ60701.94284.axf

JavaScript Object Notation format (JSON) in row-major order
http://www.bom.gov.au/fwo/IDQ60701/IDQ60701.94284.json